sensor_id;sensor_type;location;lat;lon;timestamp;pressure;altitude;pressure_sealevel;temperature;humidity
25664;BME280;13522;50.018;20.014;2023-05-29T00:01:34;99009.53;;;12.09;100.00
25664;BME280;13522;50.018;20.014;2023-05-29T00:04:46;99009.95;;;12.05;100.00
25664;BME280;13522;50.018;20.014;2023-05-29T00:07:59;99009.27;;;12.03;100.00
25664;BME280;13522;50.018;20.014;2023-05-29T00:11:12;99016.87;;;11.98;100.00
25664;BME280;13522;50.018;20.014;2023-05-29T00:14:26;99007.88;;;11.99;100.00
25664;BME280;13522;50.018;20.014;2023-05-29T00:17:39;99004.53;;;11.97;100.00
25664;BME280;13522;50.018;20.014;2023-05-29T00:20:51;99003.30;;;11.91;100.00
25664;BME280;13522;50.018;20.014;2023-05-29T00:24:03;98998.13;;;11.90;100.00
25664;BME280;13522;50.018;20.014;2023-05-29T00:27:16;99003.88;;;11.85;100.00
25664;BME280;13522;50.018;20.014;2023-05-29T00:30:28;99001.64;;;11.81;100.00
25664;BME280;13522;50.018;20.014;2023-05-29T00:33:41;99007.54;;;11.75;100.00
25664;BME280;13522;50.018;20.014;2023-05-29T00:36:53;99012.73;;;11.76;100.00
25664;BME280;13522;50.018;20.014;2023-05-29T00:40:08;99006.03;;;11.72;100.00
25664;BME280;13522;50.018;20.014;2023-05-29T00:43:21;99006.30;;;11.69;100.00
25664;BME280;13522;50.018;20.014;2023-05-29T00:46:34;99001.38;;;11.65;100.00
25664;BME280;13522;50.018;20.014;2023-05-29T00:49:47;99007.84;;;11.62;100.00
25664;BME280;13522;50.018;20.014;2023-05-29T00:53:01;99001.28;;;11.57;100.00
25664;BME280;13522;50.018;20.014;2023-05-29T00:56:14;98998.20;;;11.52;100.00
25664;BME280;13522;50.018;20.014;2023-05-29T00:59:28;98996.53;;;11.51;100.00
25664;BME280;13522;50.018;20.014;2023-05-29T01:02:43;98992.60;;;11.45;100.00
25664;BME280;13522;50.018;20.014;2023-05-29T01:05:58;98992.05;;;11.42;100.00
25664;BME280;13522;50.018;20.014;2023-05-29T01:09:11;98999.07;;;11.43;100.00
25664;BME280;13522;50.018;20.014;2023-05-29T01:12:30;98991.66;;;11.37;100.00
25664;BME280;13522;50.018;20.014;2023-05-29T01:15:54;98996.84;;;11.28;100.00
25664;BME280;13522;50.018;20.014;2023-05-29T01:19:15;99000.63;;;11.26;100.00
25664;BME280;13522;50.018;20.014;2023-05-29T01:22:35;99000.34;;;11.19;100.00
25664;BME280;13522;50.018;20.014;2023-05-29T01:26:07;98999.64;;;11.17;100.00
25664;BME280;13522;50.018;20.014;2023-05-29T01:29:24;99005.81;;;11.08;100.00
25664;BME280;13522;50.018;20.014;2023-05-29T01:32:36;99002.61;;;11.05;100.00
25664;BME280;13522;50.018;20.014;2023-05-29T01:35:51;98995.59;;;11.04;100.00
25664;BME280;13522;50.018;20.014;2023-05-29T01:39:03;98992.67;;;11.07;100.00
25664;BME280;13522;50.018;20.014;2023-05-29T01:42:16;98991.39;;;11.01;100.00
25664;BME280;13522;50.018;20.014;2023-05-29T01:45:29;98995.45;;;10.96;100.00
25664;BME280;13522;50.018;20.014;2023-05-29T01:48:43;98992.95;;;10.94;100.00
25664;BME280;13522;50.018;20.014;2023-05-29T01:51:56;98985.38;;;10.90;100.00
25664;BME280;13522;50.018;20.014;2023-05-29T01:55:09;98997.42;;;10.84;100.00
25664;BME280;13522;50.018;20.014;2023-05-29T01:58:23;98991.95;;;10.76;100.00
25664;BME280;13522;50.018;20.014;2023-05-29T02:01:36;98994.91;;;10.73;100.00
25664;BME280;13522;50.018;20.014;2023-05-29T02:04:50;98993.21;;;10.72;100.00
25664;BME280;13522;50.018;20.014;2023-05-29T02:08:02;98989.00;;;10.70;100.00
25664;BME280;13522;50.018;20.014;2023-05-29T02:11:14;98987.59;;;10.66;100.00
25664;BME280;13522;50.018;20.014;2023-05-29T02:14:26;98987.75;;;10.64;100.00
25664;BME280;13522;50.018;20.014;2023-05-29T02:17:38;98988.74;;;10.63;100.00
25664;BME280;13522;50.018;20.014;2023-05-29T02:20:51;98985.38;;;10.61;100.00
25664;BME280;13522;50.018;20.014;2023-05-29T02:24:04;98986.08;;;10.54;100.00
25664;BME280;13522;50.018;20.014;2023-05-29T02:27:18;98983.28;;;10.55;100.00
25664;BME280;13522;50.018;20.014;2023-05-29T02:30:30;98979.63;;;10.56;100.00
25664;BME280;13522;50.018;20.014;2023-05-29T02:33:43;98980.33;;;10.48;100.00
25664;BME280;13522;50.018;20.014;2023-05-29T02:36:55;98976.97;;;10.46;100.00
25664;BME280;13522;50.018;20.014;2023-05-29T02:40:09;98975.02;;;10.48;100.00
25664;BME280;13522;50.018;20.014;2023-05-29T02:43:23;98975.57;;;10.52;100.00
25664;BME280;13522;50.018;20.014;2023-05-29T02:46:35;98981.17;;;10.49;100.00
25664;BME280;13522;50.018;20.014;2023-05-29T02:49:47;98983.13;;;10.47;100.00
25664;BME280;13522;50.018;20.014;2023-05-29T02:52:59;98981.31;;;10.48;100.00
25664;BME280;13522;50.018;20.014;2023-05-29T02:56:12;98974.71;;;10.42;100.00
25664;BME280;13522;50.018;20.014;2023-05-29T02:59:24;98978.91;;;10.44;100.00
25664;BME280;13522;50.018;20.014;2023-05-29T03:02:38;98981.42;;;10.46;100.00
25664;BME280;13522;50.018;20.014;2023-05-29T03:05:50;98976.12;;;10.46;100.00
25664;BME280;13522;50.018;20.014;2023-05-29T03:09:03;98972.76;;;10.44;100.00
25664;BME280;13522;50.018;20.014;2023-05-29T03:12:16;98980.73;;;10.44;100.00
25664;BME280;13522;50.018;20.014;2023-05-29T03:15:28;98976.41;;;10.43;100.00
25664;BME280;13522;50.018;20.014;2023-05-29T03:18:41;98983.27;;;10.45;100.00
25664;BME280;13522;50.018;20.014;2023-05-29T03:21:54;98980.73;;;10.44;100.00
25664;BME280;13522;50.018;20.014;2023-05-29T03:25:09;98984.08;;;10.46;100.00
25664;BME280;13522;50.018;20.014;2023-05-29T03:28:22;98988.44;;;10.47;100.00
25664;BME280;13522;50.018;20.014;2023-05-29T03:31:34;98993.74;;;10.47;100.00
25664;BME280;13522;50.018;20.014;2023-05-29T03:34:46;98994.45;;;10.49;100.00
25664;BME280;13522;50.018;20.014;2023-05-29T03:37:59;98989.52;;;10.35;100.00
25664;BME280;13522;50.018;20.014;2023-05-29T03:41:12;98994.25;;;10.22;100.00
25664;BME280;13522;50.018;20.014;2023-05-29T03:44:24;98997.88;;;10.30;100.00
25664;BME280;13522;50.018;20.014;2023-05-29T03:47:36;98991.78;;;10.39;100.00
25664;BME280;13522;50.018;20.014;2023-05-29T03:50:49;98994.16;;;10.52;100.00
25664;BME280;13522;50.018;20.014;2023-05-29T03:54:03;98994.05;;;10.63;100.00
25664;BME280;13522;50.018;20.014;2023-05-29T03:57:16;98993.50;;;10.69;100.00
25664;BME280;13522;50.018;20.014;2023-05-29T04:00:30;98991.41;;;10.73;100.00
25664;BME280;13522;50.018;20.014;2023-05-29T04:03:42;98996.72;;;10.82;100.00
25664;BME280;13522;50.018;20.014;2023-05-29T04:06:55;98989.88;;;10.89;100.00
25664;BME280;13522;50.018;20.014;2023-05-29T04:10:09;98993.65;;;10.96;100.00
25664;BME280;13522;50.018;20.014;2023-05-29T04:13:22;98990.43;;;11.02;100.00
25664;BME280;13522;50.018;20.014;2023-05-29T04:16:34;98993.34;;;10.99;100.00
25664;BME280;13522;50.018;20.014;2023-05-29T04:19:46;98988.88;;;11.09;100.00
25664;BME280;13522;50.018;20.014;2023-05-29T04:23:00;98997.68;;;11.19;100.00
25664;BME280;13522;50.018;20.014;2023-05-29T04:26:12;98996.00;;;11.28;100.00
25664;BME280;13522;50.018;20.014;2023-05-29T04:29:24;99005.23;;;11.33;100.00
25664;BME280;13522;50.018;20.014;2023-05-29T04:32:36;98995.41;;;11.44;100.00
25664;BME280;13522;50.018;20.014;2023-05-29T04:35:50;98996.08;;;11.55;100.00
25664;BME280;13522;50.018;20.014;2023-05-29T04:39:03;98992.58;;;11.64;100.00
25664;BME280;13522;50.018;20.014;2023-05-29T04:42:15;98993.42;;;11.74;100.00
25664;BME280;13522;50.018;20.014;2023-05-29T04:45:28;99000.37;;;11.85;100.00
25664;BME280;13522;50.018;20.014;2023-05-29T04:48:43;98998.66;;;11.93;100.00
25664;BME280;13522;50.018;20.014;2023-05-29T04:51:57;98988.41;;;11.98;100.00
25664;BME280;13522;50.018;20.014;2023-05-29T04:55:11;98990.73;;;12.11;100.00
25664;BME280;13522;50.018;20.014;2023-05-29T04:58:26;98995.42;;;12.27;100.00
25664;BME280;13522;50.018;20.014;2023-05-29T05:01:38;98988.91;;;12.39;100.00
25664;BME280;13522;50.018;20.014;2023-05-29T05:04:51;98991.91;;;12.53;100.00
25664;BME280;13522;50.018;20.014;2023-05-29T05:08:03;98983.69;;;12.64;100.00
25664;BME280;13522;50.018;20.014;2023-05-29T05:11:16;98979.66;;;12.78;100.00
25664;BME280;13522;50.018;20.014;2023-05-29T05:14:29;98991.01;;;12.97;100.00
25664;BME280;13522;50.018;20.014;2023-05-29T05:17:41;98985.49;;;13.09;100.00
25664;BME280;13522;50.018;20.014;2023-05-29T05:20:53;98984.63;;;13.26;100.00
25664;BME280;13522;50.018;20.014;2023-05-29T05:24:06;98994.73;;;13.40;100.00
25664;BME280;13522;50.018;20.014;2023-05-29T05:27:19;98990.09;;;13.42;100.00
25664;BME280;13522;50.018;20.014;2023-05-29T05:30:32;98978.79;;;13.48;100.00
25664;BME280;13522;50.018;20.014;2023-05-29T05:33:44;98982.25;;;13.66;100.00
25664;BME280;13522;50.018;20.014;2023-05-29T05:36:56;98988.32;;;13.76;100.00
25664;BME280;13522;50.018;20.014;2023-05-29T05:40:10;98983.71;;;13.86;97.11
25664;BME280;13522;50.018;20.014;2023-05-29T05:43:30;98981.90;;;13.94;94.76
25664;BME280;13522;50.018;20.014;2023-05-29T05:46:44;98987.15;;;14.04;94.10
25664;BME280;13522;50.018;20.014;2023-05-29T05:49:58;98984.52;;;14.12;90.64
25664;BME280;13522;50.018;20.014;2023-05-29T05:53:10;98991.89;;;14.26;90.92
25664;BME280;13522;50.018;20.014;2023-05-29T05:56:23;98995.68;;;14.41;92.40
25664;BME280;13522;50.018;20.014;2023-05-29T05:59:35;99002.03;;;14.48;92.73
25664;BME280;13522;50.018;20.014;2023-05-29T06:02:48;98998.43;;;14.65;93.50
25664;BME280;13522;50.018;20.014;2023-05-29T06:06:03;99001.11;;;14.82;90.08
25664;BME280;13522;50.018;20.014;2023-05-29T06:09:18;98994.13;;;14.89;88.61
25664;BME280;13522;50.018;20.014;2023-05-29T06:12:31;98997.97;;;14.94;86.30
25664;BME280;13522;50.018;20.014;2023-05-29T06:15:45;98996.31;;;15.17;87.57
25664;BME280;13522;50.018;20.014;2023-05-29T06:18:57;99008.53;;;15.36;89.73
25664;BME280;13522;50.018;20.014;2023-05-29T06:22:13;99002.71;;;15.56;88.61
25664;BME280;13522;50.018;20.014;2023-05-29T06:25:25;98997.84;;;15.68;87.17
25664;BME280;13522;50.018;20.014;2023-05-29T06:28:39;99007.52;;;15.77;86.97
25664;BME280;13522;50.018;20.014;2023-05-29T06:31:52;99012.55;;;15.80;86.63
25664;BME280;13522;50.018;20.014;2023-05-29T06:35:05;99011.02;;;15.86;85.97
25664;BME280;13522;50.018;20.014;2023-05-29T06:38:18;99008.28;;;16.10;85.46
25664;BME280;13522;50.018;20.014;2023-05-29T06:41:30;99008.75;;;16.21;82.69
25664;BME280;13522;50.018;20.014;2023-05-29T06:44:44;99022.42;;;16.34;81.85
25664;BME280;13522;50.018;20.014;2023-05-29T06:47:56;99026.39;;;16.46;81.77
25664;BME280;13522;50.018;20.014;2023-05-29T06:51:09;99024.34;;;16.65;81.67
25664;BME280;13522;50.018;20.014;2023-05-29T06:54:34;99017.00;;;16.89;80.63
25664;BME280;13522;50.018;20.014;2023-05-29T06:57:46;99021.31;;;17.21;81.89
25664;BME280;13522;50.018;20.014;2023-05-29T07:00:59;99025.53;;;17.38;80.19
25664;BME280;13522;50.018;20.014;2023-05-29T07:04:15;99034.18;;;17.48;79.15
25664;BME280;13522;50.018;20.014;2023-05-29T07:07:28;99033.34;;;17.48;78.81
25664;BME280;13522;50.018;20.014;2023-05-29T07:10:43;99032.58;;;17.62;78.06
25664;BME280;13522;50.018;20.014;2023-05-29T07:13:56;99031.90;;;17.82;79.49
25664;BME280;13522;50.018;20.014;2023-05-29T07:17:09;99029.70;;;18.00;80.61
25664;BME280;13522;50.018;20.014;2023-05-29T07:20:22;99031.38;;;18.16;78.32
25664;BME280;13522;50.018;20.014;2023-05-29T07:23:35;99041.66;;;18.27;76.80
25664;BME280;13522;50.018;20.014;2023-05-29T07:26:48;99030.55;;;18.30;76.64
25664;BME280;13522;50.018;20.014;2023-05-29T07:30:01;99031.36;;;18.31;78.43
25664;BME280;13522;50.018;20.014;2023-05-29T07:33:14;99029.80;;;18.51;77.13
25664;BME280;13522;50.018;20.014;2023-05-29T07:39:43;99023.80;;;18.84;76.24
25664;BME280;13522;50.018;20.014;2023-05-29T07:42:58;99031.77;;;18.92;74.75
25664;BME280;13522;50.018;20.014;2023-05-29T07:46:12;99031.91;;;19.05;73.02
25664;BME280;13522;50.018;20.014;2023-05-29T07:49:27;99029.80;;;19.37;75.72
25664;BME280;13522;50.018;20.014;2023-05-29T07:52:40;99028.16;;;19.63;72.08
25664;BME280;13522;50.018;20.014;2023-05-29T07:55:53;99026.54;;;19.97;71.49
25664;BME280;13522;50.018;20.014;2023-05-29T07:59:06;99026.12;;;20.21;70.61
25664;BME280;13522;50.018;20.014;2023-05-29T08:02:18;99027.06;;;20.41;70.46
25664;BME280;13522;50.018;20.014;2023-05-29T08:05:46;99028.05;;;20.74;69.55
25664;BME280;13522;50.018;20.014;2023-05-29T08:09:00;99030.64;;;20.95;67.55
25664;BME280;13522;50.018;20.014;2023-05-29T08:12:13;99024.81;;;20.98;66.86
25664;BME280;13522;50.018;20.014;2023-05-29T08:15:27;99028.67;;;20.76;65.16
25664;BME280;13522;50.018;20.014;2023-05-29T08:18:39;99024.49;;;21.27;66.21
25664;BME280;13522;50.018;20.014;2023-05-29T08:21:51;99021.00;;;21.59;63.88
25664;BME280;13522;50.018;20.014;2023-05-29T08:25:04;99013.10;;;21.78;65.05
25664;BME280;13522;50.018;20.014;2023-05-29T08:28:18;99018.77;;;21.83;63.57
25664;BME280;13522;50.018;20.014;2023-05-29T08:31:32;99019.14;;;21.93;64.55
25664;BME280;13522;50.018;20.014;2023-05-29T08:34:44;99018.09;;;22.07;63.65
25664;BME280;13522;50.018;20.014;2023-05-29T08:37:57;99012.23;;;22.23;63.43
25664;BME280;13522;50.018;20.014;2023-05-29T08:41:12;99007.66;;;22.30;62.98
25664;BME280;13522;50.018;20.014;2023-05-29T08:44:30;99013.80;;;22.70;62.28
25664;BME280;13522;50.018;20.014;2023-05-29T08:47:43;99023.48;;;23.35;65.41
25664;BME280;13522;50.018;20.014;2023-05-29T08:50:57;99013.89;;;23.32;58.85
25664;BME280;13522;50.018;20.014;2023-05-29T08:54:10;99013.24;;;23.37;58.14
25664;BME280;13522;50.018;20.014;2023-05-29T08:57:22;99012.59;;;23.66;56.95
25664;BME280;13522;50.018;20.014;2023-05-29T09:00:35;99015.03;;;23.74;58.00
25664;BME280;13522;50.018;20.014;2023-05-29T09:03:48;99017.32;;;23.77;57.59
25664;BME280;13522;50.018;20.014;2023-05-29T09:07:00;99011.84;;;24.08;57.72
25664;BME280;13522;50.018;20.014;2023-05-29T09:10:15;99004.05;;;23.87;56.19
25664;BME280;13522;50.018;20.014;2023-05-29T09:13:27;98993.67;;;24.45;55.41
25664;BME280;13522;50.018;20.014;2023-05-29T09:16:43;98994.65;;;24.50;53.52
25664;BME280;13522;50.018;20.014;2023-05-29T09:19:55;98993.07;;;24.43;52.64
25664;BME280;13522;50.018;20.014;2023-05-29T09:23:10;98994.61;;;25.05;53.92
25664;BME280;13522;50.018;20.014;2023-05-29T09:26:24;98987.85;;;24.96;52.21
25664;BME280;13522;50.018;20.014;2023-05-29T09:29:38;98983.17;;;24.84;49.70
25664;BME280;13522;50.018;20.014;2023-05-29T09:32:56;98976.19;;;25.07;48.34
25664;BME280;13522;50.018;20.014;2023-05-29T09:36:11;98977.94;;;25.01;47.75
25664;BME280;13522;50.018;20.014;2023-05-29T09:39:32;98977.62;;;24.79;48.78
25664;BME280;13522;50.018;20.014;2023-05-29T09:42:48;98975.64;;;25.28;48.11
25664;BME280;13522;50.018;20.014;2023-05-29T09:46:02;98974.69;;;25.22;48.27
25664;BME280;13522;50.018;20.014;2023-05-29T09:49:20;98982.61;;;25.24;49.84
25664;BME280;13522;50.018;20.014;2023-05-29T09:52:34;98976.90;;;25.14;48.08
25664;BME280;13522;50.018;20.014;2023-05-29T09:55:46;98975.98;;;25.20;49.05
25664;BME280;13522;50.018;20.014;2023-05-29T09:58:59;98980.70;;;25.13;47.76
25664;BME280;13522;50.018;20.014;2023-05-29T10:02:12;98992.29;;;25.20;51.77
25664;BME280;13522;50.018;20.014;2023-05-29T10:05:26;98978.09;;;25.18;47.42
25664;BME280;13522;50.018;20.014;2023-05-29T10:08:44;98974.12;;;25.32;46.53
25664;BME280;13522;50.018;20.014;2023-05-29T10:12:00;98980.62;;;24.89;45.28
25664;BME280;13522;50.018;20.014;2023-05-29T10:15:16;98977.32;;;25.29;48.63
25664;BME280;13522;50.018;20.014;2023-05-29T10:18:31;98982.42;;;25.37;50.80
25664;BME280;13522;50.018;20.014;2023-05-29T10:21:44;98974.72;;;25.75;47.72
25664;BME280;13522;50.018;20.014;2023-05-29T10:24:57;98966.77;;;25.62;48.59
25664;BME280;13522;50.018;20.014;2023-05-29T10:28:11;98973.03;;;25.51;47.38
25664;BME280;13522;50.018;20.014;2023-05-29T10:31:26;98967.33;;;25.41;47.55
25664;BME280;13522;50.018;20.014;2023-05-29T10:34:44;98970.69;;;25.25;48.81
25664;BME280;13522;50.018;20.014;2023-05-29T10:38:09;98962.50;;;25.54;48.72
25664;BME280;13522;50.018;20.014;2023-05-29T10:41:32;98945.73;;;25.81;46.29
25664;BME280;13522;50.018;20.014;2023-05-29T10:44:45;98948.55;;;25.62;45.85
25664;BME280;13522;50.018;20.014;2023-05-29T10:48:03;98950.79;;;25.77;45.25
25664;BME280;13522;50.018;20.014;2023-05-29T10:51:32;98955.88;;;25.62;47.36
25664;BME280;13522;50.018;20.014;2023-05-29T10:54:55;98955.88;;;25.62;45.32
25664;BME280;13522;50.018;20.014;2023-05-29T10:58:10;98953.75;;;25.64;46.60
25664;BME280;13522;50.018;20.014;2023-05-29T11:01:26;98946.31;;;26.17;45.49
25664;BME280;13522;50.018;20.014;2023-05-29T11:04:40;98936.38;;;26.11;41.39
25664;BME280;13522;50.018;20.014;2023-05-29T11:07:56;98950.57;;;25.90;44.81
25664;BME280;13522;50.018;20.014;2023-05-29T11:11:13;98942.41;;;25.90;43.30
25664;BME280;13522;50.018;20.014;2023-05-29T11:14:25;98941.81;;;25.88;45.17
25664;BME280;13522;50.018;20.014;2023-05-29T11:17:46;98949.98;;;25.88;44.12
25664;BME280;13522;50.018;20.014;2023-05-29T11:21:03;98945.24;;;25.72;43.29
25664;BME280;13522;50.018;20.014;2023-05-29T11:24:22;98948.44;;;25.92;45.04
25664;BME280;13522;50.018;20.014;2023-05-29T11:27:36;98936.90;;;26.48;42.70
25664;BME280;13522;50.018;20.014;2023-05-29T11:30:49;98933.01;;;26.84;41.43
25664;BME280;13522;50.018;20.014;2023-05-29T11:34:02;98935.30;;;26.63;43.53
25664;BME280;13522;50.018;20.014;2023-05-29T11:37:15;98932.82;;;26.22;43.89
25664;BME280;13522;50.018;20.014;2023-05-29T11:40:28;98940.38;;;25.97;45.33
25664;BME280;13522;50.018;20.014;2023-05-29T11:43:40;98938.02;;;25.66;44.44
25664;BME280;13522;50.018;20.014;2023-05-29T11:47:02;98938.73;;;25.96;46.39
25664;BME280;13522;50.018;20.014;2023-05-29T11:50:20;98940.64;;;25.72;45.20
25664;BME280;13522;50.018;20.014;2023-05-29T11:53:34;98917.22;;;26.06;43.13
25664;BME280;13522;50.018;20.014;2023-05-29T11:56:48;98918.83;;;26.19;41.71
25664;BME280;13522;50.018;20.014;2023-05-29T12:00:00;98922.61;;;26.29;45.04
25664;BME280;13522;50.018;20.014;2023-05-29T12:03:14;98920.47;;;26.31;44.42
25664;BME280;13522;50.018;20.014;2023-05-29T12:06:36;98912.67;;;26.23;45.79
25664;BME280;13522;50.018;20.014;2023-05-29T12:09:48;98903.75;;;26.39;43.24
25664;BME280;13522;50.018;20.014;2023-05-29T12:13:03;98911.71;;;26.29;44.22
25664;BME280;13522;50.018;20.014;2023-05-29T12:16:15;98905.09;;;26.25;41.89
25664;BME280;13522;50.018;20.014;2023-05-29T12:19:28;98900.40;;;26.49;43.93
25664;BME280;13522;50.018;20.014;2023-05-29T12:22:41;98902.88;;;26.50;44.30
25664;BME280;13522;50.018;20.014;2023-05-29T12:25:54;98892.78;;;26.91;39.95
25664;BME280;13522;50.018;20.014;2023-05-29T12:29:07;98890.20;;;26.84;41.64
25664;BME280;13522;50.018;20.014;2023-05-29T12:32:19;98881.00;;;27.02;42.01
25664;BME280;13522;50.018;20.014;2023-05-29T12:35:33;98892.13;;;26.84;42.70
25664;BME280;13522;50.018;20.014;2023-05-29T12:38:51;98887.70;;;26.15;43.16
25664;BME280;13522;50.018;20.014;2023-05-29T12:42:05;98889.84;;;26.24;44.08
25664;BME280;13522;50.018;20.014;2023-05-29T12:45:20;98888.66;;;26.20;42.56
25664;BME280;13522;50.018;20.014;2023-05-29T12:48:35;98882.75;;;26.51;41.21
25664;BME280;13522;50.018;20.014;2023-05-29T12:51:49;98875.72;;;26.27;42.43
25664;BME280;13522;50.018;20.014;2023-05-29T12:55:01;98882.05;;;26.44;46.38
25664;BME280;13522;50.018;20.014;2023-05-29T12:58:15;98879.44;;;26.49;43.29
25664;BME280;13522;50.018;20.014;2023-05-29T13:01:27;98876.42;;;26.91;41.89
25664;BME280;13522;50.018;20.014;2023-05-29T13:04:40;98879.30;;;26.84;41.07
25664;BME280;13522;50.018;20.014;2023-05-29T13:07:53;98880.66;;;26.42;43.42
25664;BME280;13522;50.018;20.014;2023-05-29T13:11:07;98870.40;;;26.21;42.54
25664;BME280;13522;50.018;20.014;2023-05-29T13:14:19;98875.76;;;26.04;42.83
25664;BME280;13522;50.018;20.014;2023-05-29T13:17:31;98882.19;;;25.52;42.01
25664;BME280;13522;50.018;20.014;2023-05-29T13:20:46;98870.78;;;25.20;43.14
25664;BME280;13522;50.018;20.014;2023-05-29T13:23:59;98872.03;;;25.59;43.24
25664;BME280;13522;50.018;20.014;2023-05-29T13:27:12;98868.72;;;25.57;42.58
25664;BME280;13522;50.018;20.014;2023-05-29T13:30:25;98861.84;;;25.66;43.05
25664;BME280;13522;50.018;20.014;2023-05-29T13:33:37;98864.69;;;25.71;42.91
25664;BME280;13522;50.018;20.014;2023-05-29T13:36:50;98852.59;;;25.90;42.31
25664;BME280;13522;50.018;20.014;2023-05-29T13:40:05;98843.34;;;25.91;43.14
25664;BME280;13522;50.018;20.014;2023-05-29T13:43:19;98853.77;;;25.94;46.60
25664;BME280;13522;50.018;20.014;2023-05-29T13:46:33;98841.08;;;26.11;42.25
25664;BME280;13522;50.018;20.014;2023-05-29T13:49:46;98830.19;;;26.11;40.07
25664;BME280;13522;50.018;20.014;2023-05-29T13:52:58;98829.80;;;26.19;40.91
25664;BME280;13522;50.018;20.014;2023-05-29T13:56:10;98836.59;;;25.94;40.25
25664;BME280;13522;50.018;20.014;2023-05-29T13:59:22;98831.64;;;25.91;41.49
25664;BME280;13522;50.018;20.014;2023-05-29T14:02:34;98835.11;;;25.74;43.22
25664;BME280;13522;50.018;20.014;2023-05-29T14:05:47;98836.88;;;25.57;43.55
25664;BME280;13522;50.018;20.014;2023-05-29T14:08:59;98832.99;;;25.65;42.88
25664;BME280;13522;50.018;20.014;2023-05-29T14:12:14;98830.02;;;25.66;41.52
25664;BME280;13522;50.018;20.014;2023-05-29T14:15:26;98831.08;;;25.31;41.39
25664;BME280;13522;50.018;20.014;2023-05-29T14:18:40;98828.00;;;25.39;43.57
25664;BME280;13522;50.018;20.014;2023-05-29T14:21:54;98835.22;;;25.33;44.03
25664;BME280;13522;50.018;20.014;2023-05-29T14:25:08;98831.88;;;25.08;44.10
25664;BME280;13522;50.018;20.014;2023-05-29T14:28:21;98834.00;;;25.06;45.53
25664;BME280;13522;50.018;20.014;2023-05-29T14:31:33;98824.57;;;24.67;42.59
25664;BME280;13522;50.018;20.014;2023-05-29T14:34:45;98835.16;;;24.87;44.43
25664;BME280;13522;50.018;20.014;2023-05-29T14:37:59;98823.20;;;24.76;45.54
25664;BME280;13522;50.018;20.014;2023-05-29T14:41:11;98830.84;;;24.68;44.58
25664;BME280;13522;50.018;20.014;2023-05-29T14:44:24;98824.57;;;24.67;43.72
25664;BME280;13522;50.018;20.014;2023-05-29T14:47:36;98831.05;;;24.66;44.25
25664;BME280;13522;50.018;20.014;2023-05-29T14:50:51;98826.79;;;24.29;42.72
25664;BME280;13522;50.018;20.014;2023-05-29T14:54:03;98823.39;;;24.34;43.40
25664;BME280;13522;50.018;20.014;2023-05-29T14:57:15;98817.08;;;24.22;44.55
25664;BME280;13522;50.018;20.014;2023-05-29T15:00:28;98820.71;;;24.16;44.47
25664;BME280;13522;50.018;20.014;2023-05-29T15:03:40;98827.05;;;24.09;46.40
25664;BME280;13522;50.018;20.014;2023-05-29T15:06:53;98815.23;;;24.04;42.44
25664;BME280;13522;50.018;20.014;2023-05-29T15:10:09;98817.39;;;23.95;42.20
25664;BME280;13522;50.018;20.014;2023-05-29T15:13:24;98828.56;;;24.05;44.62
25664;BME280;13522;50.018;20.014;2023-05-29T15:16:37;98826.92;;;24.04;41.96
25664;BME280;13522;50.018;20.014;2023-05-29T15:19:50;98822.73;;;24.02;43.57
25664;BME280;13522;50.018;20.014;2023-05-29T15:23:02;98816.86;;;23.87;42.72
25664;BME280;13522;50.018;20.014;2023-05-29T15:26:14;98815.22;;;23.86;44.74
25664;BME280;13522;50.018;20.014;2023-05-29T15:29:30;98818.83;;;23.80;46.91
25664;BME280;13522;50.018;20.014;2023-05-29T15:32:43;98824.13;;;23.75;44.82
25664;BME280;13522;50.018;20.014;2023-05-29T15:35:56;98815.88;;;23.63;44.87
25664;BME280;13522;50.018;20.014;2023-05-29T15:39:08;98822.00;;;23.59;46.50
25664;BME280;13522;50.018;20.014;2023-05-29T15:42:21;98820.09;;;23.59;47.54
25664;BME280;13522;50.018;20.014;2023-05-29T15:45:34;98822.20;;;23.57;48.51
25664;BME280;13522;50.018;20.014;2023-05-29T15:48:46;98819.88;;;23.43;45.61
25664;BME280;13522;50.018;20.014;2023-05-29T15:51:58;98825.36;;;23.36;45.62
25664;BME280;13522;50.018;20.014;2023-05-29T15:55:11;98819.95;;;23.29;44.90
25664;BME280;13522;50.018;20.014;2023-05-29T15:58:24;98822.52;;;23.24;44.49
25664;BME280;13522;50.018;20.014;2023-05-29T16:01:36;98823.56;;;23.23;44.56
25664;BME280;13522;50.018;20.014;2023-05-29T16:04:49;98825.23;;;23.24;45.54
25664;BME280;13522;50.018;20.014;2023-05-29T16:08:03;98824.48;;;23.17;47.42
25664;BME280;13522;50.018;20.014;2023-05-29T16:11:15;98835.98;;;23.13;46.29
25664;BME280;13522;50.018;20.014;2023-05-29T16:14:30;98833.16;;;23.01;46.53
25664;BME280;13522;50.018;20.014;2023-05-29T16:17:43;98831.95;;;22.97;47.65
25664;BME280;13522;50.018;20.014;2023-05-29T16:20:56;98836.56;;;22.90;47.64
25664;BME280;13522;50.018;20.014;2023-05-29T16:24:08;98835.19;;;22.81;46.91
25664;BME280;13522;50.018;20.014;2023-05-29T16:27:20;98836.23;;;22.80;50.65
25664;BME280;13522;50.018;20.014;2023-05-29T16:30:33;98846.71;;;22.70;54.96
25664;BME280;13522;50.018;20.014;2023-05-29T16:33:45;98839.52;;;22.58;47.73
25664;BME280;13522;50.018;20.014;2023-05-29T16:36:57;98834.34;;;22.50;48.43
25664;BME280;13522;50.018;20.014;2023-05-29T16:40:13;98848.13;;;22.41;51.74
25664;BME280;13522;50.018;20.014;2023-05-29T16:43:26;98853.17;;;22.31;53.99
25664;BME280;13522;50.018;20.014;2023-05-29T16:46:39;98848.41;;;22.27;56.77
25664;BME280;13522;50.018;20.014;2023-05-29T16:49:51;98841.20;;;22.14;52.80
25664;BME280;13522;50.018;20.014;2023-05-29T16:53:04;98844.95;;;22.07;56.74